Time;durP1;ratioP1;P1;durP2;ratioP2;P2;SDS_P1;SDS_P2;PMS_P1;PMS_P2;Temp;Humidity;BMP_temperature;BMP_pressure;BME280_temperature;BME280_humidity;BME280_pressure;Samples;Min_cycle;Max_cycle;Signal;HPM_P1;HPM_P2
2022/03/24 00:00:51;;;;;;;33.03;15.50;;;7.10;98.10;;;;;;5030567;28;20453;-71
2022/03/24 00:03:18;;;;;;;32.93;17.87;;;7.10;98.30;;;;;;5028621;28;20549;-71
2022/03/24 00:05:45;;;;;;;34.17;17.33;;;7.20;98.30;;;;;;5029952;28;20873;-71
2022/03/24 00:08:12;;;;;;;31.03;16.60;;;7.20;98.40;;;;;;5030083;28;20566;-71
2022/03/24 00:10:39;;;;;;;35.00;16.43;;;7.20;98.50;;;;;;5030200;28;20463;-71
2022/03/24 00:13:05;;;;;;;28.37;16.80;;;7.20;98.50;;;;;;5030469;28;20499;-71
2022/03/24 00:15:33;;;;;;;25.57;15.57;;;7.20;98.50;;;;;;5029823;28;20953;-71
2022/03/24 00:18:01;;;;;;;35.30;15.40;;;7.20;98.40;;;;;;5023022;28;20555;-71
2022/03/24 00:20:28;;;;;;;26.57;15.00;;;7.10;98.20;;;;;;5024343;28;20466;-71
2022/03/24 00:22:55;;;;;;;24.57;13.80;;;7.10;98.20;;;;;;5028777;28;20453;-71
2022/03/24 00:25:24;;;;;;;31.67;15.60;;;7.10;98.40;;;;;;5030015;28;20528;-71
2022/03/24 00:27:50;;;;;;;26.87;14.30;;;7.10;98.60;;;;;;5029439;28;20572;-71
2022/03/24 00:30:17;;;;;;;30.33;16.30;;;7.10;98.60;;;;;;5030205;28;20511;-71
2022/03/24 00:32:45;;;;;;;38.40;17.50;;;7.10;98.90;;;;;;5021200;28;20454;-70
2022/03/24 00:35:12;;;;;;;30.43;15.57;;;6.90;99.20;;;;;;5029569;28;20449;-71
2022/03/24 00:37:38;;;;;;;28.17;15.53;;;6.80;99.70;;;;;;5029782;28;20465;-71
2022/03/24 00:40:07;;;;;;;33.13;17.10;;;6.70;99.90;;;;;;5022520;28;21024;-71
2022/03/24 00:42:36;;;;;;;32.30;17.57;;;6.70;99.90;;;;;;5029352;28;20451;-71
2022/03/24 00:45:04;;;;;;;33.60;16.70;;;6.60;99.90;;;;;;5023181;28;20505;-71
2022/03/24 00:47:31;;;;;;;29.10;16.00;;;6.50;99.90;;;;;;5029664;28;20469;-71
2022/03/24 00:49:59;;;;;;;33.17;16.87;;;6.40;99.90;;;;;;5029115;28;20481;-71
2022/03/24 00:52:25;;;;;;;37.97;18.20;;;6.30;99.90;;;;;;5029338;28;20591;-71
2022/03/24 00:54:52;;;;;;;30.80;17.93;;;6.20;99.90;;;;;;5022667;28;20507;-71
2022/03/24 00:57:19;;;;;;;32.43;17.20;;;6.10;99.90;;;;;;5029900;28;20989;-71
2022/03/24 00:59:46;;;;;;;36.93;18.43;;;6.00;99.90;;;;;;5029802;28;20485;-71
2022/03/24 01:02:14;;;;;;;28.03;17.30;;;5.90;99.90;;;;;;5029515;28;20449;-71
2022/03/24 01:04:41;;;;;;;36.37;17.00;;;5.70;99.90;;;;;;5029422;28;20480;-71
2022/03/24 01:07:09;;;;;;;30.17;17.40;;;5.70;99.90;;;;;;5023253;28;20836;-71
2022/03/24 01:09:36;;;;;;;29.73;16.50;;;5.70;99.90;;;;;;5024464;28;20539;-71
2022/03/24 01:12:05;;;;;;;32.57;16.63;;;5.60;99.90;;;;;;5027850;28;20449;-71
2022/03/24 01:14:35;;;;;;;36.83;17.37;;;5.70;99.90;;;;;;5030110;28;20457;-71
2022/03/24 01:17:04;;;;;;;28.43;15.70;;;5.60;99.90;;;;;;5033120;28;20468;-71
2022/03/24 01:19:31;;;;;;;30.00;16.40;;;5.60;99.90;;;;;;5033919;28;20802;-71
2022/03/24 01:21:57;;;;;;;33.47;15.83;;;5.60;99.90;;;;;;5029460;28;21039;-71
2022/03/24 01:24:25;;;;;;;34.07;15.63;;;5.50;99.90;;;;;;5030266;28;20499;-71
2022/03/24 01:26:52;;;;;;;38.47;15.77;;;5.50;99.90;;;;;;5031294;28;20901;-71
2022/03/24 01:29:21;;;;;;;30.80;15.07;;;5.50;99.90;;;;;;5028585;28;20477;-71
2022/03/24 01:31:48;;;;;;;25.50;14.63;;;5.60;99.90;;;;;;5030064;28;20457;-71
2022/03/24 01:34:16;;;;;;;31.50;15.00;;;5.60;99.90;;;;;;5032800;28;20523;-71
2022/03/24 01:36:43;;;;;;;26.70;14.80;;;5.60;99.90;;;;;;5032417;28;20954;-71
2022/03/24 01:39:10;;;;;;;29.90;15.77;;;5.60;99.90;;;;;;5021883;28;20456;-71
2022/03/24 01:41:40;;;;;;;26.00;15.10;;;5.60;99.90;;;;;;5030419;28;20457;-71
2022/03/24 01:44:12;;;;;;;30.20;15.83;;;5.60;99.90;;;;;;5024770;28;20449;-71
2022/03/24 01:46:39;;;;;;;29.57;15.30;;;5.60;99.90;;;;;;5030612;28;21049;-71
2022/03/24 01:49:05;;;;;;;25.53;13.97;;;5.60;99.90;;;;;;5031504;28;20974;-71
2022/03/24 01:51:32;;;;;;;29.20;16.00;;;5.60;99.90;;;;;;5032907;28;20457;-71
2022/03/24 01:53:59;;;;;;;33.13;15.90;;;5.60;99.90;;;;;;5023501;28;20453;-71
2022/03/24 01:56:26;;;;;;;35.03;16.50;;;5.60;99.90;;;;;;5031065;28;20489;-71
2022/03/24 01:58:55;;;;;;;39.73;17.13;;;5.60;99.90;;;;;;5031407;28;20465;-71
2022/03/24 02:01:34;;;;;;;35.10;16.00;;;5.60;99.90;;;;;;5026317;28;20505;-71
2022/03/24 02:04:03;;;;;;;33.10;15.57;;;5.50;99.90;;;;;;5028857;28;20879;-71
2022/03/24 02:06:30;;;;;;;32.37;15.53;;;5.60;99.90;;;;;;5029847;28;20450;-71
2022/03/24 02:08:57;;;;;;;36.90;15.70;;;5.60;99.90;;;;;;5032364;28;20893;-71
2022/03/24 02:11:24;;;;;;;31.87;16.67;;;5.50;99.90;;;;;;5025869;28;21061;-71
2022/03/24 02:13:50;;;;;;;30.60;16.47;;;5.50;99.90;;;;;;5032273;28;20457;-71
2022/03/24 02:16:18;;;;;;;28.10;14.70;;;5.50;99.90;;;;;;5029359;28;20507;-71
2022/03/24 02:18:46;;;;;;;38.63;16.07;;;5.50;99.90;;;;;;5031902;28;20473;-71
2022/03/24 02:21:15;;;;;;;32.23;16.10;;;5.50;99.90;;;;;;5025886;28;20461;-71
2022/03/24 02:23:44;;;;;;;29.53;15.17;;;5.50;99.90;;;;;;5031884;28;20457;-71
2022/03/24 02:26:11;;;;;;;30.27;16.50;;;5.40;99.90;;;;;;5019318;28;20460;-71
2022/03/24 02:28:38;;;;;;;27.77;16.87;;;5.40;99.90;;;;;;5032032;28;20511;-71
2022/03/24 02:31:07;;;;;;;30.47;17.50;;;5.40;99.90;;;;;;5031519;28;20453;-71
2022/03/24 02:33:33;;;;;;;33.93;17.63;;;5.30;99.90;;;;;;5032254;28;20535;-71
2022/03/24 02:36:00;;;;;;;31.20;17.17;;;5.30;99.90;;;;;;5032499;28;20449;-71
2022/03/24 02:38:27;;;;;;;37.20;18.00;;;5.20;99.90;;;;;;5032019;28;20481;-71
2022/03/24 02:40:55;;;;;;;31.40;17.37;;;5.20;99.90;;;;;;5029937;28;20527;-71
2022/03/24 02:43:22;;;;;;;34.07;17.30;;;5.10;99.90;;;;;;5026628;28;21023;-71
2022/03/24 02:45:50;;;;;;;29.77;16.03;;;5.10;99.90;;;;;;5031584;28;20461;-71
2022/03/24 02:48:17;;;;;;;38.10;18.90;;;5.10;99.90;;;;;;5031939;28;20481;-71
2022/03/24 02:50:44;;;;;;;34.00;17.83;;;5.00;99.90;;;;;;5031404;28;20496;-71
2022/03/24 02:53:10;;;;;;;32.93;17.13;;;5.00;99.90;;;;;;5031672;28;20559;-71
2022/03/24 02:55:37;;;;;;;38.17;16.90;;;4.90;99.90;;;;;;5031594;28;20449;-71
2022/03/24 02:58:05;;;;;;;32.97;16.87;;;4.90;99.90;;;;;;5029984;28;20496;-71
2022/03/24 03:00:32;;;;;;;41.97;18.13;;;4.90;99.90;;;;;;5024917;28;20480;-71
2022/03/24 03:02:59;;;;;;;33.50;16.93;;;4.90;99.90;;;;;;5031255;28;20479;-71
2022/03/24 03:05:26;;;;;;;35.90;17.13;;;4.90;99.90;;;;;;5031708;28;20513;-71
2022/03/24 03:07:52;;;;;;;45.60;17.17;;;4.80;99.90;;;;;;5030577;28;20473;-72
2022/03/24 03:10:19;;;;;;;29.23;16.10;;;4.80;99.90;;;;;;5019500;28;20485;-71
2022/03/24 03:12:46;;;;;;;28.70;16.73;;;4.70;99.90;;;;;;5030147;28;20504;-71
2022/03/24 03:15:15;;;;;;;32.40;17.23;;;4.70;99.90;;;;;;5023091;28;20454;-71
2022/03/24 03:17:41;;;;;;;28.30;16.23;;;4.60;99.90;;;;;;5024576;28;20981;-71
2022/03/24 03:20:10;;;;;;;31.90;15.57;;;4.50;99.90;;;;;;5028341;28;20523;-71
2022/03/24 03:22:37;;;;;;;29.70;15.97;;;4.50;99.90;;;;;;5031106;28;20457;-71
2022/03/24 03:25:04;;;;;;;34.47;16.40;;;4.50;99.90;;;;;;5030943;28;20941;-71
2022/03/24 03:27:32;;;;;;;35.23;16.43;;;4.40;99.90;;;;;;5030469;28;20468;-71
2022/03/24 03:29:59;;;;;;;32.97;16.47;;;4.40;99.90;;;;;;5024438;28;20483;-71
2022/03/24 03:32:26;;;;;;;32.40;15.93;;;4.40;99.90;;;;;;5031138;28;20454;-71
2022/03/24 03:34:53;;;;;;;38.50;16.43;;;4.40;99.90;;;;;;5030100;28;20499;-71
2022/03/24 03:37:20;;;;;;;31.67;16.53;;;4.40;99.90;;;;;;5030507;28;20523;-71
2022/03/24 03:39:47;;;;;;;34.07;16.60;;;4.40;99.90;;;;;;5030621;28;20457;-71
2022/03/24 03:42:13;;;;;;;35.97;17.47;;;4.40;99.90;;;;;;5030787;28;20934;-71
2022/03/24 03:44:40;;;;;;;29.97;16.83;;;4.40;99.90;;;;;;5030631;28;20503;-71
2022/03/24 03:47:07;;;;;;;30.67;16.20;;;4.40;99.90;;;;;;5029558;28;21032;-71
2022/03/24 03:49:36;;;;;;;40.50;17.00;;;4.40;99.90;;;;;;5030634;28;20560;-71
2022/03/24 03:52:03;;;;;;;29.70;16.50;;;4.40;99.90;;;;;;5029884;28;20454;-71
2022/03/24 03:54:30;;;;;;;30.40;15.53;;;4.40;99.90;;;;;;5028004;28;20511;-71
2022/03/24 03:56:58;;;;;;;29.80;16.43;;;4.30;99.90;;;;;;5029564;28;20473;-71
2022/03/24 03:59:24;;;;;;;30.20;16.57;;;4.30;99.90;;;;;;5030817;28;20540;-71
2022/03/24 04:01:52;;;;;;;36.20;17.53;;;4.30;99.90;;;;;;5029765;28;21019;-71
2022/03/24 04:04:19;;;;;;;36.80;17.70;;;4.30;99.90;;;;;;5028882;28;20533;-71
2022/03/24 04:06:47;;;;;;;32.90;17.27;;;4.30;99.90;;;;;;5030175;28;21020;-71
2022/03/24 04:09:13;;;;;;;31.43;16.57;;;4.20;99.90;;;;;;5030377;28;20472;-71
2022/03/24 04:11:40;;;;;;;27.30;16.80;;;4.20;99.90;;;;;;5030294;28;20558;-72
2022/03/24 04:14:07;;;;;;;30.27;16.33;;;4.20;99.90;;;;;;5030348;28;20504;-71
2022/03/24 04:16:33;;;;;;;32.63;17.47;;;4.20;99.90;;;;;;5029877;28;20480;-71
2022/03/24 04:19:00;;;;;;;35.70;17.80;;;4.20;99.90;;;;;;5029868;28;20519;-71
2022/03/24 04:21:27;;;;;;;38.40;17.93;;;4.20;99.90;;;;;;5030275;28;20461;-71
2022/03/24 04:23:55;;;;;;;31.67;17.30;;;4.20;99.90;;;;;;5029797;28;20465;-71
2022/03/24 04:26:22;;;;;;;41.97;17.87;;;4.20;99.90;;;;;;5030270;28;20457;-71
2022/03/24 04:28:49;;;;;;;33.60;16.90;;;4.20;99.90;;;;;;5027820;28;20489;-71
2022/03/24 04:31:16;;;;;;;34.07;18.30;;;4.20;99.90;;;;;;5030108;28;20476;-71
2022/03/24 04:33:43;;;;;;;30.03;16.37;;;4.20;99.90;;;;;;5029649;28;20553;-71
2022/03/24 04:36:10;;;;;;;37.13;16.57;;;4.20;99.90;;;;;;5029211;28;20449;-71
2022/03/24 04:38:38;;;;;;;35.40;16.63;;;4.20;99.90;;;;;;5029980;28;20508;-71
2022/03/24 04:41:07;;;;;;;29.97;15.83;;;4.20;99.90;;;;;;5029983;28;20467;-71
2022/03/24 04:43:34;;;;;;;37.70;17.60;;;4.20;99.90;;;;;;5030142;28;20458;-72
2022/03/24 04:46:01;;;;;;;38.63;15.90;;;4.10;99.90;;;;;;5029612;28;20515;-71
2022/03/24 04:48:27;;;;;;;31.77;18.87;;;4.10;99.90;;;;;;5029880;28;21036;-71
2022/03/24 04:50:54;;;;;;;33.00;17.03;;;4.10;99.90;;;;;;5033580;28;20499;-71
2022/03/24 04:53:20;;;;;;;30.37;16.80;;;4.00;99.90;;;;;;5033237;28;20552;-71
2022/03/24 04:55:47;;;;;;;33.37;17.30;;;4.00;99.90;;;;;;5031701;28;20453;-71
2022/03/24 04:58:15;;;;;;;39.97;17.73;;;4.00;99.90;;;;;;5033672;28;20477;-71
2022/03/24 05:00:43;;;;;;;34.37;17.27;;;3.90;99.90;;;;;;5033261;28;20682;-71
2022/03/24 05:03:10;;;;;;;34.40;17.87;;;3.80;99.90;;;;;;5033893;28;20524;-71
2022/03/24 05:05:36;;;;;;;31.27;17.67;;;3.80;99.90;;;;;;5033752;28;20457;-71
2022/03/24 05:08:03;;;;;;;42.70;18.43;;;3.80;99.90;;;;;;5033353;28;21194;-71
2022/03/24 05:10:30;;;;;;;36.63;17.97;;;3.70;99.90;;;;;;5033757;28;20491;-71
2022/03/24 05:12:57;;;;;;;39.40;17.60;;;3.70;99.90;;;;;;5032168;28;20446;-71
2022/03/24 05:15:25;;;;;;;35.83;16.73;;;3.70;99.90;;;;;;5033447;28;20445;-71
2022/03/24 05:17:52;;;;;;;41.37;17.53;;;3.50;99.90;;;;;;5033221;28;20488;-71
2022/03/24 05:20:19;;;;;;;27.93;16.10;;;3.40;99.90;;;;;;5033117;28;20449;-71
2022/03/24 05:22:46;;;;;;;38.27;18.80;;;3.40;99.90;;;;;;5033434;28;20461;-71
2022/03/24 05:25:14;;;;;;;33.93;17.73;;;3.30;99.90;;;;;;5032059;28;20449;-71
2022/03/24 05:27:40;;;;;;;36.37;17.73;;;3.20;99.90;;;;;;5033486;28;20476;-71
2022/03/24 05:30:08;;;;;;;38.07;17.83;;;3.20;99.90;;;;;;5033079;28;20481;-72
2022/03/24 05:32:37;;;;;;;34.50;16.70;;;3.20;99.90;;;;;;5024355;28;20527;-72
2022/03/24 05:35:04;;;;;;;30.07;17.77;;;3.10;99.90;;;;;;5019151;28;20484;-72
2022/03/24 05:37:31;;;;;;;39.47;18.60;;;3.10;99.90;;;;;;5030727;28;20480;-72
2022/03/24 05:39:58;;;;;;;37.47;18.53;;;3.20;99.90;;;;;;5032449;28;20495;-72
2022/03/24 05:42:26;;;;;;;35.23;16.63;;;3.20;99.90;;;;;;5033104;28;20515;-72
2022/03/24 05:44:53;;;;;;;33.73;17.20;;;3.20;99.90;;;;;;5032531;28;20461;-72
2022/03/24 05:47:20;;;;;;;39.10;19.30;;;3.20;99.90;;;;;;5032561;28;20531;-72
2022/03/24 05:49:48;;;;;;;32.57;17.33;;;3.40;99.90;;;;;;5032597;28;20555;-72
2022/03/24 05:52:15;;;;;;;40.00;18.77;;;3.50;99.90;;;;;;5031138;28;20500;-73
2022/03/24 05:54:41;;;;;;;36.33;18.77;;;3.80;99.90;;;;;;5031651;28;20456;-73
2022/03/24 05:57:10;;;;;;;35.33;17.80;;;4.00;99.90;;;;;;5032786;28;20527;-73
2022/03/24 05:59:37;;;;;;;39.73;17.50;;;4.30;99.90;;;;;;5032255;28;20499;-73
2022/03/24 06:02:04;;;;;;;38.27;18.37;;;4.50;99.90;;;;;;5031188;28;20814;-73
2022/03/24 06:04:32;;;;;;;38.60;18.40;;;4.80;99.90;;;;;;5027672;28;20508;-74
2022/03/24 06:07:01;;;;;;;30.73;17.13;;;4.90;99.90;;;;;;5030589;28;20477;-73
2022/03/24 06:09:28;;;;;;;32.63;16.53;;;5.20;99.90;;;;;;5032457;28;20481;-73
2022/03/24 06:11:56;;;;;;;30.70;16.77;;;5.50;99.90;;;;;;5031815;28;20450;-72
2022/03/24 06:14:23;;;;;;;32.10;18.20;;;5.70;99.90;;;;;;5031789;28;20481;-72
2022/03/24 06:16:50;;;;;;;32.53;17.17;;;5.90;99.90;;;;;;5030610;28;20492;-72
2022/03/24 06:19:17;;;;;;;28.83;16.67;;;6.00;99.90;;;;;;5032497;28;20454;-72
2022/03/24 06:21:44;;;;;;;31.40;16.63;;;6.20;99.90;;;;;;5031314;28;20889;-72
2022/03/24 06:24:12;;;;;;;30.57;16.00;;;6.40;99.90;;;;;;5031652;28;20454;-72
2022/03/24 06:26:39;;;;;;;31.10;16.83;;;6.70;99.90;;;;;;5031389;28;20549;-72
2022/03/24 06:29:12;;;;;;;36.40;16.97;;;6.90;99.90;;;;;;5028636;28;20523;-72
2022/03/24 06:31:39;;;;;;;38.60;18.77;;;7.10;99.90;;;;;;5030957;28;20457;-72
2022/03/24 06:34:06;;;;;;;36.80;17.23;;;7.40;99.90;;;;;;5028554;28;20507;-72
2022/03/24 06:36:33;;;;;;;33.47;17.70;;;7.60;99.90;;;;;;5030993;28;20454;-72
2022/03/24 06:39:00;;;;;;;31.17;16.13;;;7.90;99.90;;;;;;5031552;28;20445;-72
2022/03/24 06:41:28;;;;;;;40.77;17.97;;;8.10;99.90;;;;;;5030913;28;20458;-72
2022/03/24 06:43:59;;;;;;;37.63;17.10;;;8.30;99.90;;;;;;5031268;28;20513;-73
2022/03/24 06:46:26;;;;;;;36.07;17.00;;;8.60;99.90;;;;;;5029257;28;20462;-72
2022/03/24 06:48:53;;;;;;;33.17;17.27;;;8.90;99.90;;;;;;5030934;28;20833;-72
2022/03/24 06:51:20;;;;;;;36.30;18.00;;;9.20;99.90;;;;;;5031247;28;20485;-72
2022/03/24 06:53:47;;;;;;;28.80;16.07;;;9.40;99.90;;;;;;5026853;28;20872;-72
2022/03/24 06:56:14;;;;;;;31.67;17.20;;;9.60;99.90;;;;;;5030784;28;20449;-73
2022/03/24 06:58:43;;;;;;;37.07;17.27;;;9.90;99.90;;;;;;5031210;28;20901;-73
2022/03/24 07:01:10;;;;;;;37.83;17.57;;;10.20;99.90;;;;;;5030563;28;21041;-72
2022/03/24 07:03:37;;;;;;;34.63;18.30;;;10.40;99.90;;;;;;5031172;28;20540;-72
2022/03/24 07:06:04;;;;;;;38.17;17.70;;;10.90;99.90;;;;;;5030894;28;20480;-72
2022/03/24 07:08:30;;;;;;;30.87;18.10;;;11.10;99.90;;;;;;5030385;28;20907;-72
2022/03/24 07:10:57;;;;;;;31.10;17.23;;;11.30;99.90;;;;;;5029346;28;20551;-72
2022/03/24 07:13:24;;;;;;;32.00;18.90;;;11.40;99.90;;;;;;5026051;28;20907;-72
2022/03/24 07:15:52;;;;;;;37.03;17.90;;;11.50;99.90;;;;;;5027408;28;20957;-72
2022/03/24 07:18:18;;;;;;;31.03;18.33;;;11.50;99.90;;;;;;5029515;28;20469;-72
2022/03/24 07:20:45;;;;;;;33.93;19.00;;;11.60;99.90;;;;;;5030094;28;20457;-72
2022/03/24 07:23:12;;;;;;;38.50;18.63;;;11.40;99.90;;;;;;5029772;28;20504;-72
2022/03/24 07:25:39;;;;;;;32.87;17.20;;;11.30;99.90;;;;;;5030939;28;20454;-72
2022/03/24 07:28:07;;;;;;;28.47;17.03;;;11.10;99.90;;;;;;5030030;28;20556;-71
2022/03/24 07:30:33;;;;;;;41.27;17.77;;;11.20;99.90;;;;;;5030391;28;20481;-72
2022/03/24 07:33:03;;;;;;;34.43;18.17;;;11.30;99.90;;;;;;5027421;28;20906;-72
2022/03/24 07:35:31;;;;;;;30.80;17.37;;;11.50;99.90;;;;;;5026943;28;20449;-72
2022/03/24 07:37:58;;;;;;;32.87;17.40;;;11.50;99.90;;;;;;5030259;28;20481;-72
2022/03/24 07:40:25;;;;;;;33.80;17.77;;;11.90;99.90;;;;;;5029744;28;20453;-72
2022/03/24 07:42:53;;;;;;;42.87;20.63;;;12.10;99.90;;;;;;5029862;28;20457;-72
2022/03/24 07:45:20;;;;;;;37.60;19.20;;;12.30;99.90;;;;;;5030637;28;20446;-72
2022/03/24 07:48:25;;;;;;;36.93;21.30;;;12.20;99.90;;;;;;5021536;28;20474;-72
2022/03/24 07:50:53;;;;;;;36.30;18.67;;;12.20;99.90;;;;;;4963179;28;20522;-71
2022/03/24 07:53:53;;;;;;;38.50;19.73;;;12.30;99.90;;;;;;4965084;28;20476;-72
2022/03/24 07:56:21;;;;;;;36.20;18.67;;;12.60;99.90;;;;;;5005576;28;20474;-71
2022/03/24 07:58:48;;;;;;;37.97;19.87;;;12.90;99.90;;;;;;5027582;28;20473;-72
2022/03/24 08:01:15;;;;;;;36.43;20.33;;;13.10;99.90;;;;;;5026857;28;20508;-72
2022/03/24 08:03:43;;;;;;;32.80;18.73;;;13.30;99.90;;;;;;5025759;28;20528;-72
2022/03/24 08:06:10;;;;;;;43.93;18.77;;;13.40;99.90;;;;;;5026311;28;20838;-72
2022/03/24 08:08:36;;;;;;;39.97;19.40;;;13.70;99.90;;;;;;5028862;28;21039;-72
2022/03/24 08:11:03;;;;;;;36.20;20.17;;;14.00;99.90;;;;;;5025259;28;21027;-72
2022/03/24 08:13:30;;;;;;;37.13;19.70;;;14.20;99.90;;;;;;5027690;28;20582;-73
2022/03/24 08:15:56;;;;;;;32.23;19.10;;;14.30;99.90;;;;;;5023593;28;20458;-71
2022/03/24 08:18:23;;;;;;;34.30;19.63;;;14.50;99.90;;;;;;5023614;28;20469;-72
2022/03/24 08:20:52;;;;;;;33.50;17.93;;;14.80;99.90;;;;;;5026251;28;20465;-71
2022/03/24 08:23:19;;;;;;;39.43;22.10;;;15.10;99.90;;;;;;5022724;28;20536;-71
2022/03/24 08:25:45;;;;;;;37.87;20.17;;;15.30;99.90;;;;;;5028498;28;20454;-72
2022/03/24 08:28:13;;;;;;;34.50;21.10;;;15.30;99.70;;;;;;5028154;28;20468;-71
2022/03/24 08:30:40;;;;;;;40.37;21.80;;;15.40;99.40;;;;;;5028132;28;20527;-72
2022/03/24 08:33:09;;;;;;;39.87;20.23;;;15.30;99.80;;;;;;5027385;28;20884;-72
2022/03/24 08:35:36;;;;;;;35.23;21.77;;;15.20;99.10;;;;;;5028815;28;20802;-72
2022/03/24 08:38:04;;;;;;;44.50;20.90;;;15.00;99.50;;;;;;5028409;28;21028;-72
2022/03/24 08:40:31;;;;;;;37.20;21.80;;;14.80;98.40;;;;;;5028151;28;20962;-72
2022/03/24 08:42:57;;;;;;;38.43;21.67;;;14.60;98.50;;;;;;5028538;28;20466;-72
2022/03/24 08:45:24;;;;;;;42.38;20.48;;;14.60;99.40;;;;;;5028634;28;20445;-71
2022/03/24 08:47:53;;;;;;;39.20;22.13;;;14.90;98.90;;;;;;5023639;28;20249;-72
2022/03/24 08:50:20;;;;;;;41.73;23.10;;;15.20;98.50;;;;;;5026992;28;20477;-72
2022/03/24 08:52:47;;;;;;;40.90;23.73;;;15.60;96.10;;;;;;5024036;28;21020;-72
2022/03/24 08:55:16;;;;;;;42.70;23.07;;;16.10;93.40;;;;;;5027983;28;21039;-72
2022/03/24 08:57:44;;;;;;;37.07;22.50;;;16.60;90.90;;;;;;5027439;28;20473;-72
2022/03/24 09:00:13;;;;;;;36.83;22.47;;;16.90;90.10;;;;;;5024638;28;20432;-72
2022/03/24 09:02:40;;;;;;;35.07;23.20;;;17.30;90.30;;;;;;5026478;28;20473;-71
2022/03/24 09:05:08;;;;;;;38.77;23.57;;;17.70;88.20;;;;;;5021994;28;20910;-71
2022/03/24 09:07:35;;;;;;;42.53;23.60;;;18.00;85.30;;;;;;5026913;28;20477;-72
2022/03/24 09:10:02;;;;;;;36.97;23.77;;;18.20;86.90;;;;;;5025892;28;20458;-72
2022/03/24 09:12:31;;;;;;;38.70;22.37;;;18.20;84.30;;;;;;5024237;28;20455;-72
2022/03/24 09:14:57;;;;;;;40.10;24.10;;;18.50;83.60;;;;;;5021401;28;20488;-72
2022/03/24 09:17:24;;;;;;;44.23;25.53;;;18.70;81.30;;;;;;5022455;28;20483;-72
2022/03/24 09:19:51;;;;;;;42.37;24.80;;;18.80;77.10;;;;;;5024397;28;20453;-71
2022/03/24 09:22:17;;;;;;;38.50;23.17;;;18.80;79.50;;;;;;5028896;28;20457;-72
2022/03/24 09:24:44;;;;;;;42.30;23.30;;;18.80;77.10;;;;;;5027073;28;20488;-72
2022/03/24 09:27:11;;;;;;;41.30;24.30;;;18.60;74.80;;;;;;5027059;28;20482;-72
2022/03/24 09:29:39;;;;;;;39.27;24.07;;;18.60;77.20;;;;;;5025350;28;20499;-71
2022/03/24 09:32:12;;;;;;;44.10;24.30;;;18.70;77.30;;;;;;5024373;28;20478;-72
2022/03/24 09:34:38;;;;;;;37.80;23.67;;;18.90;78.00;;;;;;5028418;28;20544;-71
2022/03/24 09:37:05;;;;;;;40.60;23.63;;;18.90;79.00;;;;;;5030365;28;21045;-72
2022/03/24 09:39:31;;;;;;;35.63;22.73;;;18.80;79.30;;;;;;5033837;28;20507;-72
2022/03/24 09:41:59;;;;;;;36.17;23.33;;;19.20;79.70;;;;;;5024361;28;20461;-72
2022/03/24 09:44:25;;;;;;;37.80;23.10;;;19.40;79.70;;;;;;5028392;28;20449;-72
2022/03/24 09:46:53;;;;;;;46.00;24.77;;;19.50;78.20;;;;;;5028810;28;20966;-69
2022/03/24 09:49:20;;;;;;;41.80;22.73;;;19.50;78.30;;;;;;5031920;28;20511;-70
2022/03/24 09:51:47;;;;;;;42.60;23.50;;;19.90;80.70;;;;;;5025500;28;20491;-74
2022/03/24 09:54:14;;;;;;;41.17;24.27;;;20.10;82.90;;;;;;5031947;28;20454;-75
2022/03/24 09:56:41;;;;;;;39.60;24.17;;;20.30;90.70;;;;;;5029080;28;20507;-72
2022/03/24 09:59:09;;;;;;;43.83;23.90;;;20.20;92.20;;;;;;5029648;28;20877;-74
2022/03/24 10:01:39;;;;;;;37.20;23.63;;;20.20;88.00;;;;;;5029810;28;20532;-73
2022/03/24 10:04:09;;;;;;;40.27;24.93;;;20.10;90.00;;;;;;5030091;28;21029;-73
2022/03/24 10:06:39;;;;;;;40.73;24.23;;;20.00;87.40;;;;;;5029119;28;20515;-72
2022/03/24 10:09:06;;;;;;;42.63;25.60;;;20.00;88.70;;;;;;5029987;28;20449;-72
2022/03/24 10:11:35;;;;;;;37.70;24.57;;;19.70;84.70;;;;;;5028632;28;20944;-72
2022/03/24 10:14:02;;;;;;;40.10;24.13;;;19.90;89.30;;;;;;5030351;28;20468;-73
2022/03/24 10:16:44;;;;;;;42.00;25.07;;;20.00;85.40;;;;;;5028903;28;20942;-73
2022/03/24 10:19:14;;;;;;;39.77;24.50;;;20.30;86.40;;;;;;5029564;28;20920;-73
2022/03/24 10:21:42;;;;;;;39.57;23.87;;;20.40;82.80;;;;;;5028776;28;20531;-73
2022/03/24 10:24:11;;;;;;;43.67;24.43;;;20.60;82.40;;;;;;5030402;28;20450;-72
2022/03/24 10:26:43;;;;;;;38.60;24.27;;;20.80;83.80;;;;;;5030332;28;20885;-74
2022/03/24 10:29:10;;;;;;;43.83;26.90;;;21.10;81.20;;;;;;5029629;28;20550;-73
2022/03/24 10:31:39;;;;;;;43.67;27.60;;;21.10;77.30;;;;;;5026138;28;21058;-73
2022/03/24 10:34:07;;;;;;;46.20;26.93;;;21.00;79.90;;;;;;5028586;28;20461;-75
2022/03/24 10:36:36;;;;;;;40.40;25.57;;;21.00;80.20;;;;;;5029270;28;20484;-75
2022/03/24 10:39:05;;;;;;;44.50;26.57;;;21.00;79.00;;;;;;5030148;28;20953;-75
2022/03/24 10:41:34;;;;;;;46.20;25.53;;;20.70;80.50;;;;;;5028320;28;20453;-76
2022/03/24 10:44:06;;;;;;;42.30;27.13;;;20.70;77.10;;;;;;5030554;28;20848;-72
2022/03/24 10:46:37;;;;;;;46.30;26.70;;;20.40;76.30;;;;;;5024391;28;20482;-75
2022/03/24 10:49:19;;;;;;;43.83;28.50;;;20.30;79.30;;;;;;5020149;28;21015;-75
2022/03/24 10:51:49;;;;;;;46.93;27.57;;;20.50;77.40;;;;;;5028933;28;20937;-73
2022/03/24 10:54:25;;;;;;;51.00;29.13;;;20.80;78.50;;;;;;5026721;28;20489;-73
2022/03/24 10:56:58;;;;;;;49.47;27.37;;;21.20;77.20;;;;;;5030862;28;20465;-72
2022/03/24 10:59:30;;;;;;;46.30;28.30;;;21.50;77.20;;;;;;5025258;28;20512;-73
2022/03/24 11:01:57;;;;;;;54.53;28.93;;;21.70;78.20;;;;;;5025891;28;20458;-73
2022/03/24 11:04:24;;;;;;;45.33;29.17;;;21.60;74.10;;;;;;5026345;28;20969;-73
2022/03/24 11:06:53;;;;;;;59.30;30.37;;;21.80;76.30;;;;;;5028437;28;20454;-72
2022/03/24 11:09:24;;;;;;;47.63;29.57;;;21.90;74.60;;;;;;5030281;28;20511;-72
2022/03/24 11:12:23;;;;;;;47.50;29.00;;;22.00;74.80;;;;;;5027294;28;20484;-72
2022/03/24 11:14:51;;;;;;;52.23;28.10;;;21.90;72.00;;;;;;5026876;28;21011;-72
2022/03/24 11:17:18;;;;;;;47.47;28.20;;;21.70;72.80;;;;;;5027705;28;20926;-73
2022/03/24 11:19:51;;;;;;;50.67;28.67;;;22.00;75.60;;;;;;5027373;28;20458;-73
2022/03/24 11:22:19;;;;;;;47.73;29.93;;;22.30;75.20;;;;;;5029642;28;20442;-73
2022/03/24 11:24:47;;;;;;;50.33;28.80;;;22.40;76.40;;;;;;5022795;28;21029;-73
2022/03/24 11:27:15;;;;;;;75.87;37.70;;;22.70;74.20;;;;;;5027055;28;20481;-73
2022/03/24 11:29:42;;;;;;;51.27;29.63;;;22.80;72.10;;;;;;5027372;28;20888;-72
2022/03/24 11:32:09;;;;;;;50.40;30.10;;;22.40;69.20;;;;;;5027497;28;20842;-72
2022/03/24 11:34:37;;;;;;;56.60;30.63;;;21.90;71.40;;;;;;5029820;28;20949;-72
2022/03/24 11:37:04;;;;;;;47.47;28.57;;;21.90;70.40;;;;;;5029054;28;20993;-72
2022/03/24 11:39:32;;;;;;;47.90;28.90;;;21.80;71.70;;;;;;5028440;28;20461;-72
2022/03/24 11:42:00;;;;;;;54.83;29.50;;;21.20;69.40;;;;;;5025679;28;20454;-73
2022/03/24 11:44:40;;;;;;;54.90;31.13;;;20.50;70.90;;;;;;5029850;28;20774;-72
2022/03/24 11:47:13;;;;;;;50.37;28.43;;;20.40;71.70;;;;;;5026488;28;20476;-73
2022/03/24 11:49:40;;;;;;;46.70;27.63;;;20.60;72.00;;;;;;5029462;28;20452;-73
2022/03/24 11:52:24;;;;;;;51.20;29.23;;;21.20;70.80;;;;;;5027386;28;20486;-73
2022/03/24 11:54:54;;;;;;;48.93;30.37;;;21.50;71.70;;;;;;5023263;28;20453;-72
2022/03/24 11:57:26;;;;;;;54.03;30.83;;;21.70;70.00;;;;;;5028765;28;20568;-72
2022/03/24 12:00:26;;;;;;;50.27;30.37;;;21.30;71.00;;;;;;5026721;28;20522;-72
2022/03/24 12:02:53;;;;;;;54.20;32.23;;;21.00;71.20;;;;;;5026681;28;20974;-73
2022/03/24 12:05:21;;;;;;;51.10;29.17;;;21.40;72.00;;;;;;5025556;28;20449;-73
2022/03/24 12:07:47;;;;;;;50.27;31.50;;;21.60;71.00;;;;;;5027644;28;20531;-73
2022/03/24 12:10:30;;;;;;;51.80;31.17;;;22.00;70.60;;;;;;5019839;28;20511;-73
2022/03/24 12:13:19;;;;;;;54.27;30.73;;;22.30;69.40;;;;;;5026223;28;20538;-72
2022/03/24 12:16:06;;;;;;;48.93;31.47;;;22.20;67.80;;;;;;5025980;28;20828;-72
2022/03/24 12:18:40;;;;;;;49.50;30.00;;;22.20;68.80;;;;;;5022962;28;20473;-73
2022/03/24 12:21:07;;;;;;;54.33;31.33;;;22.20;69.80;;;;;;5026539;28;20518;-73
2022/03/24 12:24:04;;;;;;;52.70;28.30;;;22.30;68.00;;;;;;5026637;28;20453;-73
2022/03/24 12:26:36;;;;;;;52.47;29.97;;;22.40;65.90;;;;;;5023576;28;20478;-73
2022/03/24 12:29:19;;;;;;;47.27;28.27;;;22.20;66.80;;;;;;5027846;28;20965;-72
2022/03/24 12:32:00;;;;;;;51.50;30.07;;;22.50;67.20;;;;;;5028382;28;20477;-72
2022/03/24 12:34:31;;;;;;;55.80;29.47;;;22.60;67.60;;;;;;5024552;28;20457;-72
2022/03/24 12:36:59;;;;;;;49.80;30.13;;;22.60;68.10;;;;;;5028413;28;21001;-72
2022/03/24 12:39:37;;;;;;;51.50;30.10;;;22.60;69.50;;;;;;5022821;28;20544;-72